sensor_id;sensor_type;location;lat;lon;timestamp;temperature;humidity
36498;DHT22;22513;51.222;6.480;2022-08-18T00:01:50;16.90;99.90
36498;DHT22;22513;51.222;6.480;2022-08-18T00:04:19;16.80;99.90
36498;DHT22;22513;51.222;6.480;2022-08-18T00:06:45;16.80;99.90
36498;DHT22;22513;51.222;6.480;2022-08-18T00:09:10;16.70;99.90
36498;DHT22;22513;51.222;6.480;2022-08-18T00:11:39;16.70;99.90
36498;DHT22;22513;51.222;6.480;2022-08-18T00:14:06;16.70;99.90
36498;DHT22;22513;51.222;6.480;2022-08-18T00:16:32;16.60;99.90
36498;DHT22;22513;51.222;6.480;2022-08-18T00:18:58;16.60;99.90
36498;DHT22;22513;51.222;6.480;2022-08-18T00:21:24;16.60;99.90
36498;DHT22;22513;51.222;6.480;2022-08-18T00:23:50;16.60;99.90
36498;DHT22;22513;51.222;6.480;2022-08-18T00:26:16;16.60;99.90
36498;DHT22;22513;51.222;6.480;2022-08-18T00:28:41;16.60;99.90
36498;DHT22;22513;51.222;6.480;2022-08-18T00:31:07;16.60;99.90
36498;DHT22;22513;51.222;6.480;2022-08-18T00:33:32;16.70;99.90
36498;DHT22;22513;51.222;6.480;2022-08-18T00:35:58;16.60;99.90
36498;DHT22;22513;51.222;6.480;2022-08-18T00:38:24;16.70;99.90
36498;DHT22;22513;51.222;6.480;2022-08-18T00:40:51;16.70;99.90
36498;DHT22;22513;51.222;6.480;2022-08-18T00:45:56;16.80;99.90
36498;DHT22;22513;51.222;6.480;2022-08-18T00:48:22;16.80;99.90
36498;DHT22;22513;51.222;6.480;2022-08-18T00:50:54;16.80;99.90
36498;DHT22;22513;51.222;6.480;2022-08-18T00:53:23;16.80;99.90
36498;DHT22;22513;51.222;6.480;2022-08-18T00:55:50;16.80;99.90
36498;DHT22;22513;51.222;6.480;2022-08-18T00:58:33;16.80;99.90
36498;DHT22;22513;51.222;6.480;2022-08-18T01:01:03;16.80;99.90
36498;DHT22;22513;51.222;6.480;2022-08-18T01:03:30;16.80;99.90
36498;DHT22;22513;51.222;6.480;2022-08-18T01:06:04;16.90;99.90
36498;DHT22;22513;51.222;6.480;2022-08-18T01:08:31;16.90;99.90
36498;DHT22;22513;51.222;6.480;2022-08-18T01:10:58;17.00;99.90
36498;DHT22;22513;51.222;6.480;2022-08-18T01:13:29;17.00;99.90
36498;DHT22;22513;51.222;6.480;2022-08-18T01:15:56;17.00;99.90
36498;DHT22;22513;51.222;6.480;2022-08-18T01:21:47;17.10;99.90
36498;DHT22;22513;51.222;6.480;2022-08-18T01:24:16;17.10;99.90
36498;DHT22;22513;51.222;6.480;2022-08-18T01:26:43;17.10;99.90
36498;DHT22;22513;51.222;6.480;2022-08-18T01:29:14;17.10;99.90
36498;DHT22;22513;51.222;6.480;2022-08-18T01:31:46;17.10;99.90
36498;DHT22;22513;51.222;6.480;2022-08-18T01:34:15;17.20;99.90
36498;DHT22;22513;51.222;6.480;2022-08-18T01:36:41;17.20;99.90
36498;DHT22;22513;51.222;6.480;2022-08-18T01:39:10;17.30;99.90
36498;DHT22;22513;51.222;6.480;2022-08-18T01:41:36;17.30;99.90
36498;DHT22;22513;51.222;6.480;2022-08-18T01:44:03;17.30;99.90
36498;DHT22;22513;51.222;6.480;2022-08-18T01:46:31;17.40;99.90
36498;DHT22;22513;51.222;6.480;2022-08-18T01:48:58;17.50;99.90
36498;DHT22;22513;51.222;6.480;2022-08-18T01:51:27;17.50;99.90
36498;DHT22;22513;51.222;6.480;2022-08-18T01:53:53;17.50;99.90
36498;DHT22;22513;51.222;6.480;2022-08-18T01:56:19;17.50;99.90
36498;DHT22;22513;51.222;6.480;2022-08-18T01:58:46;17.50;99.90
36498;DHT22;22513;51.222;6.480;2022-08-18T02:01:14;17.50;99.90
36498;DHT22;22513;51.222;6.480;2022-08-18T02:03:44;17.50;99.90
36498;DHT22;22513;51.222;6.480;2022-08-18T02:06:14;17.50;99.90
36498;DHT22;22513;51.222;6.480;2022-08-18T02:08:40;17.50;99.90
36498;DHT22;22513;51.222;6.480;2022-08-18T02:11:06;17.50;99.90
36498;DHT22;22513;51.222;6.480;2022-08-18T02:13:46;17.50;99.90
36498;DHT22;22513;51.222;6.480;2022-08-18T02:16:13;17.50;99.90
36498;DHT22;22513;51.222;6.480;2022-08-18T02:18:38;17.50;99.90
36498;DHT22;22513;51.222;6.480;2022-08-18T02:21:10;17.50;99.90
36498;DHT22;22513;51.222;6.480;2022-08-18T02:23:37;17.50;99.90
36498;DHT22;22513;51.222;6.480;2022-08-18T02:26:08;17.50;99.90
36498;DHT22;22513;51.222;6.480;2022-08-18T02:28:34;17.50;99.90
36498;DHT22;22513;51.222;6.480;2022-08-18T02:31:05;17.50;99.90
36498;DHT22;22513;51.222;6.480;2022-08-18T02:33:31;17.60;99.90
36498;DHT22;22513;51.222;6.480;2022-08-18T02:35:56;17.60;99.90
36498;DHT22;22513;51.222;6.480;2022-08-18T02:38:22;17.60;99.90
36498;DHT22;22513;51.222;6.480;2022-08-18T02:40:54;17.60;99.90
36498;DHT22;22513;51.222;6.480;2022-08-18T02:43:20;17.70;99.90
36498;DHT22;22513;51.222;6.480;2022-08-18T02:45:45;17.70;99.90
36498;DHT22;22513;51.222;6.480;2022-08-18T02:48:11;17.70;99.90
36498;DHT22;22513;51.222;6.480;2022-08-18T02:50:37;17.70;99.90
36498;DHT22;22513;51.222;6.480;2022-08-18T02:53:13;17.80;99.90
36498;DHT22;22513;51.222;6.480;2022-08-18T02:55:47;17.70;99.90
36498;DHT22;22513;51.222;6.480;2022-08-18T02:58:14;17.80;99.90
36498;DHT22;22513;51.222;6.480;2022-08-18T03:00:40;17.80;99.90
36498;DHT22;22513;51.222;6.480;2022-08-18T03:03:05;17.80;99.90
36498;DHT22;22513;51.222;6.480;2022-08-18T03:05:31;17.80;99.90
36498;DHT22;22513;51.222;6.480;2022-08-18T03:07:57;17.80;99.90
36498;DHT22;22513;51.222;6.480;2022-08-18T03:10:24;17.90;99.90
36498;DHT22;22513;51.222;6.480;2022-08-18T03:12:49;17.80;99.90
36498;DHT22;22513;51.222;6.480;2022-08-18T03:15:15;17.90;99.90
36498;DHT22;22513;51.222;6.480;2022-08-18T03:17:41;17.90;99.90
36498;DHT22;22513;51.222;6.480;2022-08-18T03:20:07;17.90;99.90
36498;DHT22;22513;51.222;6.480;2022-08-18T03:22:33;17.90;99.90
36498;DHT22;22513;51.222;6.480;2022-08-18T03:24:58;18.00;99.90
36498;DHT22;22513;51.222;6.480;2022-08-18T03:27:24;18.00;99.90
36498;DHT22;22513;51.222;6.480;2022-08-18T03:29:50;17.90;99.90
36498;DHT22;22513;51.222;6.480;2022-08-18T03:32:16;18.00;99.90
36498;DHT22;22513;51.222;6.480;2022-08-18T03:34:42;17.90;99.90
36498;DHT22;22513;51.222;6.480;2022-08-18T03:37:08;17.90;99.90
36498;DHT22;22513;51.222;6.480;2022-08-18T03:39:34;17.90;99.90
36498;DHT22;22513;51.222;6.480;2022-08-18T03:42:00;18.00;99.90
36498;DHT22;22513;51.222;6.480;2022-08-18T03:44:31;18.00;99.90
36498;DHT22;22513;51.222;6.480;2022-08-18T03:46:57;18.00;99.90
36498;DHT22;22513;51.222;6.480;2022-08-18T03:49:23;18.00;99.90
36498;DHT22;22513;51.222;6.480;2022-08-18T03:51:48;18.10;99.90
36498;DHT22;22513;51.222;6.480;2022-08-18T03:54:17;18.10;99.90
36498;DHT22;22513;51.222;6.480;2022-08-18T03:56:44;18.10;99.90
36498;DHT22;22513;51.222;6.480;2022-08-18T03:59:16;18.20;99.90
36498;DHT22;22513;51.222;6.480;2022-08-18T04:01:43;18.20;99.90
36498;DHT22;22513;51.222;6.480;2022-08-18T04:04:12;18.20;99.90
36498;DHT22;22513;51.222;6.480;2022-08-18T04:06:44;18.20;99.90
36498;DHT22;22513;51.222;6.480;2022-08-18T04:09:12;18.20;99.90
36498;DHT22;22513;51.222;6.480;2022-08-18T04:11:40;18.20;99.90
36498;DHT22;22513;51.222;6.480;2022-08-18T04:14:10;18.30;99.90
36498;DHT22;22513;51.222;6.480;2022-08-18T04:16:37;18.30;99.90
36498;DHT22;22513;51.222;6.480;2022-08-18T04:19:04;18.30;99.90
36498;DHT22;22513;51.222;6.480;2022-08-18T04:21:35;18.30;99.90
36498;DHT22;22513;51.222;6.480;2022-08-18T04:24:03;18.30;99.90
36498;DHT22;22513;51.222;6.480;2022-08-18T04:26:35;18.40;99.90
36498;DHT22;22513;51.222;6.480;2022-08-18T04:29:02;18.40;99.90
36498;DHT22;22513;51.222;6.480;2022-08-18T04:31:28;18.40;99.90
36498;DHT22;22513;51.222;6.480;2022-08-18T04:33:56;18.30;99.90
36498;DHT22;22513;51.222;6.480;2022-08-18T04:36:23;18.30;99.90
36498;DHT22;22513;51.222;6.480;2022-08-18T04:38:49;18.20;99.90
36498;DHT22;22513;51.222;6.480;2022-08-18T04:41:15;18.20;99.90
36498;DHT22;22513;51.222;6.480;2022-08-18T04:43:41;18.20;99.90
36498;DHT22;22513;51.222;6.480;2022-08-18T04:46:07;18.20;99.90
36498;DHT22;22513;51.222;6.480;2022-08-18T04:48:40;18.10;99.90
36498;DHT22;22513;51.222;6.480;2022-08-18T04:51:15;18.20;99.90
36498;DHT22;22513;51.222;6.480;2022-08-18T04:53:42;18.20;99.90
36498;DHT22;22513;51.222;6.480;2022-08-18T04:58:50;18.20;99.90
36498;DHT22;22513;51.222;6.480;2022-08-18T05:01:19;18.20;99.90
36498;DHT22;22513;51.222;6.480;2022-08-18T05:03:47;18.20;99.90
36498;DHT22;22513;51.222;6.480;2022-08-18T05:06:13;18.30;99.90
36498;DHT22;22513;51.222;6.480;2022-08-18T05:08:39;18.30;99.90
36498;DHT22;22513;51.222;6.480;2022-08-18T05:11:06;18.30;99.90
36498;DHT22;22513;51.222;6.480;2022-08-18T05:13:31;18.40;99.90
36498;DHT22;22513;51.222;6.480;2022-08-18T05:15:58;18.50;99.90
36498;DHT22;22513;51.222;6.480;2022-08-18T05:18:32;18.50;99.90
36498;DHT22;22513;51.222;6.480;2022-08-18T05:20:58;18.60;99.90
36498;DHT22;22513;51.222;6.480;2022-08-18T05:23:25;18.60;99.90
36498;DHT22;22513;51.222;6.480;2022-08-18T05:25:57;18.70;99.90
36498;DHT22;22513;51.222;6.480;2022-08-18T05:28:22;18.80;99.90
36498;DHT22;22513;51.222;6.480;2022-08-18T05:30:48;18.80;99.90
36498;DHT22;22513;51.222;6.480;2022-08-18T05:33:13;18.80;99.90
36498;DHT22;22513;51.222;6.480;2022-08-18T05:35:46;18.80;99.90
36498;DHT22;22513;51.222;6.480;2022-08-18T05:41:15;18.90;99.90
36498;DHT22;22513;51.222;6.480;2022-08-18T05:43:45;18.90;99.90
36498;DHT22;22513;51.222;6.480;2022-08-18T05:46:11;18.90;99.90
36498;DHT22;22513;51.222;6.480;2022-08-18T05:48:37;18.90;99.90
36498;DHT22;22513;51.222;6.480;2022-08-18T05:51:13;18.90;99.90
36498;DHT22;22513;51.222;6.480;2022-08-18T05:53:41;18.90;99.90
36498;DHT22;22513;51.222;6.480;2022-08-18T05:56:29;18.90;99.90
36498;DHT22;22513;51.222;6.480;2022-08-18T05:59:36;19.00;99.90
36498;DHT22;22513;51.222;6.480;2022-08-18T06:07:08;19.10;99.90
36498;DHT22;22513;51.222;6.480;2022-08-18T06:09:46;19.20;99.90
36498;DHT22;22513;51.222;6.480;2022-08-18T06:14:51;19.30;99.90
36498;DHT22;22513;51.222;6.480;2022-08-18T06:23:17;19.30;99.90
36498;DHT22;22513;51.222;6.480;2022-08-18T06:25:57;19.30;99.90
36498;DHT22;22513;51.222;6.480;2022-08-18T06:31:24;19.30;99.90
36498;DHT22;22513;51.222;6.480;2022-08-18T06:34:34;19.40;99.90
36498;DHT22;22513;51.222;6.480;2022-08-18T06:37:22;19.40;99.90
36498;DHT22;22513;51.222;6.480;2022-08-18T06:39:54;19.50;99.90
36498;DHT22;22513;51.222;6.480;2022-08-18T06:42:25;19.50;99.90
36498;DHT22;22513;51.222;6.480;2022-08-18T06:45:02;19.50;99.90
36498;DHT22;22513;51.222;6.480;2022-08-18T06:50:15;19.50;99.90
36498;DHT22;22513;51.222;6.480;2022-08-18T06:52:56;19.60;99.90
36498;DHT22;22513;51.222;6.480;2022-08-18T06:55:40;19.60;99.90
36498;DHT22;22513;51.222;6.480;2022-08-18T07:03:21;19.70;99.90
36498;DHT22;22513;51.222;6.480;2022-08-18T07:13:40;19.90;99.90
36498;DHT22;22513;51.222;6.480;2022-08-18T07:18:54;19.90;99.90
36498;DHT22;22513;51.222;6.480;2022-08-18T07:21:26;19.80;99.90
36498;DHT22;22513;51.222;6.480;2022-08-18T07:24:28;19.80;99.90
36498;DHT22;22513;51.222;6.480;2022-08-18T07:29:39;19.70;99.90
36498;DHT22;22513;51.222;6.480;2022-08-18T07:32:17;19.80;99.90
36498;DHT22;22513;51.222;6.480;2022-08-18T07:34:47;19.80;99.90
36498;DHT22;22513;51.222;6.480;2022-08-18T07:37:45;20.00;99.90
36498;DHT22;22513;51.222;6.480;2022-08-18T07:40:25;20.20;99.90
36498;DHT22;22513;51.222;6.480;2022-08-18T07:42:55;20.30;99.90
36498;DHT22;22513;51.222;6.480;2022-08-18T07:45:30;20.60;99.90
36498;DHT22;22513;51.222;6.480;2022-08-18T07:55:31;21.50;99.90
36498;DHT22;22513;51.222;6.480;2022-08-18T07:58:14;21.50;99.90
36498;DHT22;22513;51.222;6.480;2022-08-18T08:01:04;21.60;99.90
36498;DHT22;22513;51.222;6.480;2022-08-18T08:06:57;22.00;99.90
36498;DHT22;22513;51.222;6.480;2022-08-18T08:09:55;22.30;99.90
36498;DHT22;22513;51.222;6.480;2022-08-18T08:15:48;22.60;99.90
36498;DHT22;22513;51.222;6.480;2022-08-18T08:21:07;22.50;99.90
36498;DHT22;22513;51.222;6.480;2022-08-18T08:29:28;22.20;99.90
36498;DHT22;22513;51.222;6.480;2022-08-18T08:32:01;22.20;99.90
36498;DHT22;22513;51.222;6.480;2022-08-18T08:37:23;22.50;99.90
36498;DHT22;22513;51.222;6.480;2022-08-18T08:39:57;22.50;99.90
36498;DHT22;22513;51.222;6.480;2022-08-18T08:43:10;22.70;99.90
36498;DHT22;22513;51.222;6.480;2022-08-18T08:45:18;22.80;99.90
36498;DHT22;22513;51.222;6.480;2022-08-18T08:50:18;23.10;99.90
36498;DHT22;22513;51.222;6.480;2022-08-18T08:52:56;23.10;99.90
36498;DHT22;22513;51.222;6.480;2022-08-18T08:58:19;22.90;99.90
36498;DHT22;22513;51.222;6.480;2022-08-18T09:00:48;22.70;99.90
36498;DHT22;22513;51.222;6.480;2022-08-18T09:09:28;22.70;99.90
36498;DHT22;22513;51.222;6.480;2022-08-18T09:32:55;24.40;99.90
36498;DHT22;22513;51.222;6.480;2022-08-18T09:35:45;24.50;99.90
36498;DHT22;22513;51.222;6.480;2022-08-18T09:38:18;24.80;99.90
36498;DHT22;22513;51.222;6.480;2022-08-18T09:41:19;24.90;99.90
36498;DHT22;22513;51.222;6.480;2022-08-18T09:44:13;25.10;99.90
36498;DHT22;22513;51.222;6.480;2022-08-18T09:51:51;25.20;99.50
36498;DHT22;22513;51.222;6.480;2022-08-18T09:54:20;25.20;99.80
36498;DHT22;22513;51.222;6.480;2022-08-18T10:07:47;24.50;99.90
36498;DHT22;22513;51.222;6.480;2022-08-18T10:10:34;24.50;99.90
36498;DHT22;22513;51.222;6.480;2022-08-18T10:13:57;24.40;99.90
36498;DHT22;22513;51.222;6.480;2022-08-18T10:24:53;24.70;99.90
36498;DHT22;22513;51.222;6.480;2022-08-18T10:27:47;25.00;99.60
36498;DHT22;22513;51.222;6.480;2022-08-18T10:32:57;25.10;98.80
36498;DHT22;22513;51.222;6.480;2022-08-18T10:40:42;25.20;99.40
36498;DHT22;22513;51.222;6.480;2022-08-18T10:43:33;25.50;98.80
36498;DHT22;22513;51.222;6.480;2022-08-18T10:45:59;25.60;98.10
36498;DHT22;22513;51.222;6.480;2022-08-18T10:48:27;25.60;98.20
36498;DHT22;22513;51.222;6.480;2022-08-18T10:51:01;25.60;98.00
36498;DHT22;22513;51.222;6.480;2022-08-18T10:56:00;25.70;98.50
36498;DHT22;22513;51.222;6.480;2022-08-18T11:06:38;26.20;96.70
36498;DHT22;22513;51.222;6.480;2022-08-18T11:09:06;25.90;96.50
36498;DHT22;22513;51.222;6.480;2022-08-18T11:11:36;26.00;96.60
36498;DHT22;22513;51.222;6.480;2022-08-18T11:14:10;26.10;96.10
36498;DHT22;22513;51.222;6.480;2022-08-18T11:19:15;25.50;96.70
36498;DHT22;22513;51.222;6.480;2022-08-18T11:21:43;25.50;96.80
36498;DHT22;22513;51.222;6.480;2022-08-18T11:26:58;25.50;96.30
36498;DHT22;22513;51.222;6.480;2022-08-18T11:31:54;25.80;96.60
36498;DHT22;22513;51.222;6.480;2022-08-18T11:34:30;26.10;95.80
36498;DHT22;22513;51.222;6.480;2022-08-18T11:37:03;26.00;95.40
36498;DHT22;22513;51.222;6.480;2022-08-18T11:39:30;25.80;95.70
36498;DHT22;22513;51.222;6.480;2022-08-18T11:41:57;25.40;96.20
36498;DHT22;22513;51.222;6.480;2022-08-18T11:44:25;25.40;96.50
36498;DHT22;22513;51.222;6.480;2022-08-18T11:47:08;25.70;96.20
36498;DHT22;22513;51.222;6.480;2022-08-18T11:49:48;26.10;95.60
36498;DHT22;22513;51.222;6.480;2022-08-18T11:52:26;26.30;95.10
36498;DHT22;22513;51.222;6.480;2022-08-18T11:55:00;26.10;95.20
36498;DHT22;22513;51.222;6.480;2022-08-18T12:06:16;25.80;95.20
36498;DHT22;22513;51.222;6.480;2022-08-18T12:11:23;26.00;94.70
36498;DHT22;22513;51.222;6.480;2022-08-18T12:14:05;26.10;94.80
36498;DHT22;22513;51.222;6.480;2022-08-18T12:16:38;26.10;94.90
36498;DHT22;22513;51.222;6.480;2022-08-18T12:19:06;26.10;94.90
36498;DHT22;22513;51.222;6.480;2022-08-18T12:21:40;26.20;94.50
36498;DHT22;22513;51.222;6.480;2022-08-18T12:24:12;26.40;94.50
36498;DHT22;22513;51.222;6.480;2022-08-18T12:26:42;26.50;94.30
36498;DHT22;22513;51.222;6.480;2022-08-18T12:29:07;26.70;94.40
36498;DHT22;22513;51.222;6.480;2022-08-18T12:31:33;26.80;93.90
36498;DHT22;22513;51.222;6.480;2022-08-18T12:33:59;26.90;93.40
36498;DHT22;22513;51.222;6.480;2022-08-18T12:36:25;27.00;93.40
36498;DHT22;22513;51.222;6.480;2022-08-18T12:38:51;27.00;93.10
36498;DHT22;22513;51.222;6.480;2022-08-18T12:41:17;27.10;92.80
36498;DHT22;22513;51.222;6.480;2022-08-18T12:43:42;27.20;93.10
36498;DHT22;22513;51.222;6.480;2022-08-18T12:46:08;27.40;92.90
36498;DHT22;22513;51.222;6.480;2022-08-18T12:48:35;27.70;92.60
36498;DHT22;22513;51.222;6.480;2022-08-18T12:51:01;27.90;92.40
36498;DHT22;22513;51.222;6.480;2022-08-18T12:53:27;28.10;92.10
36498;DHT22;22513;51.222;6.480;2022-08-18T12:55:52;28.30;91.70
36498;DHT22;22513;51.222;6.480;2022-08-18T12:58:18;28.50;91.30
36498;DHT22;22513;51.222;6.480;2022-08-18T13:00:44;28.60;90.90
36498;DHT22;22513;51.222;6.480;2022-08-18T13:03:10;28.70;89.20
36498;DHT22;22513;51.222;6.480;2022-08-18T13:05:36;28.50;90.10
36498;DHT22;22513;51.222;6.480;2022-08-18T13:08:04;28.60;90.00
36498;DHT22;22513;51.222;6.480;2022-08-18T13:10:34;28.90;90.00
36498;DHT22;22513;51.222;6.480;2022-08-18T13:13:00;29.00;88.00
36498;DHT22;22513;51.222;6.480;2022-08-18T13:15:26;29.20;88.20
36498;DHT22;22513;51.222;6.480;2022-08-18T13:17:55;29.30;87.00
36498;DHT22;22513;51.222;6.480;2022-08-18T13:20:21;29.30;84.80
36498;DHT22;22513;51.222;6.480;2022-08-18T13:22:46;29.20;85.30
36498;DHT22;22513;51.222;6.480;2022-08-18T13:25:16;29.10;85.80
36498;DHT22;22513;51.222;6.480;2022-08-18T13:27:43;29.10;85.50
36498;DHT22;22513;51.222;6.480;2022-08-18T13:30:11;29.00;85.30
36498;DHT22;22513;51.222;6.480;2022-08-18T13:32:39;28.70;85.30
36498;DHT22;22513;51.222;6.480;2022-08-18T13:35:06;28.40;85.80
36498;DHT22;22513;51.222;6.480;2022-08-18T13:37:32;28.20;86.40
36498;DHT22;22513;51.222;6.480;2022-08-18T13:39:59;28.00;87.00
36498;DHT22;22513;51.222;6.480;2022-08-18T13:42:27;27.80;87.40
36498;DHT22;22513;51.222;6.480;2022-08-18T13:44:57;27.70;87.80
36498;DHT22;22513;51.222;6.480;2022-08-18T13:47:23;27.70;87.90
36498;DHT22;22513;51.222;6.480;2022-08-18T13:49:55;27.70;87.90
36498;DHT22;22513;51.222;6.480;2022-08-18T13:52:21;27.60;87.80
36498;DHT22;22513;51.222;6.480;2022-08-18T13:54:46;27.60;88.00
36498;DHT22;22513;51.222;6.480;2022-08-18T13:57:12;27.70;85.30
36498;DHT22;22513;51.222;6.480;2022-08-18T13:59:38;27.70;84.90
36498;DHT22;22513;51.222;6.480;2022-08-18T14:02:07;27.80;84.90
36498;DHT22;22513;51.222;6.480;2022-08-18T14:04:33;27.90;84.30
36498;DHT22;22513;51.222;6.480;2022-08-18T14:07:00;27.70;83.60
36498;DHT22;22513;51.222;6.480;2022-08-18T14:09:27;27.70;84.20
36498;DHT22;22513;51.222;6.480;2022-08-18T14:11:53;27.70;84.70
36498;DHT22;22513;51.222;6.480;2022-08-18T14:14:19;27.80;84.70
36498;DHT22;22513;51.222;6.480;2022-08-18T14:16:45;27.60;85.20
36498;DHT22;22513;51.222;6.480;2022-08-18T14:19:11;27.60;85.60
36498;DHT22;22513;51.222;6.480;2022-08-18T14:21:55;27.70;85.40
36498;DHT22;22513;51.222;6.480;2022-08-18T14:24:41;27.80;85.10
36498;DHT22;22513;51.222;6.480;2022-08-18T14:27:36;27.70;84.60
36498;DHT22;22513;51.222;6.480;2022-08-18T14:30:10;27.60;85.00
36498;DHT22;22513;51.222;6.480;2022-08-18T14:32:36;27.70;84.30
36498;DHT22;22513;51.222;6.480;2022-08-18T14:35:10;27.70;83.30
36498;DHT22;22513;51.222;6.480;2022-08-18T14:37:36;27.70;83.60
36498;DHT22;22513;51.222;6.480;2022-08-18T14:40:02;27.80;84.00
36498;DHT22;22513;51.222;6.480;2022-08-18T14:42:28;27.90;82.20
36498;DHT22;22513;51.222;6.480;2022-08-18T14:44:54;27.90;82.10
36498;DHT22;22513;51.222;6.480;2022-08-18T14:47:22;28.00;82.50
36498;DHT22;22513;51.222;6.480;2022-08-18T14:49:47;27.90;83.00
36498;DHT22;22513;51.222;6.480;2022-08-18T14:52:14;27.90;82.10
36498;DHT22;22513;51.222;6.480;2022-08-18T14:54:39;27.80;81.70
36498;DHT22;22513;51.222;6.480;2022-08-18T14:57:05;27.80;82.20
36498;DHT22;22513;51.222;6.480;2022-08-18T14:59:34;27.80;82.50
36498;DHT22;22513;51.222;6.480;2022-08-18T15:01:59;27.70;81.80
36498;DHT22;22513;51.222;6.480;2022-08-18T15:04:25;27.70;82.30
36498;DHT22;22513;51.222;6.480;2022-08-18T15:06:52;27.70;82.30
36498;DHT22;22513;51.222;6.480;2022-08-18T15:09:18;27.70;82.90
36498;DHT22;22513;51.222;6.480;2022-08-18T15:11:43;27.70;82.70
36498;DHT22;22513;51.222;6.480;2022-08-18T15:14:09;27.70;82.90
36498;DHT22;22513;51.222;6.480;2022-08-18T15:16:35;27.70;82.50
36498;DHT22;22513;51.222;6.480;2022-08-18T15:19:02;27.60;82.20
36498;DHT22;22513;51.222;6.480;2022-08-18T15:21:28;27.60;82.60
36498;DHT22;22513;51.222;6.480;2022-08-18T15:24:13;27.50;82.70
36498;DHT22;22513;51.222;6.480;2022-08-18T15:26:57;27.40;82.60
36498;DHT22;22513;51.222;6.480;2022-08-18T15:29:24;27.30;83.50
36498;DHT22;22513;51.222;6.480;2022-08-18T15:31:50;27.40;83.40
36498;DHT22;22513;51.222;6.480;2022-08-18T15:34:16;27.20;83.50
36498;DHT22;22513;51.222;6.480;2022-08-18T15:36:42;27.30;83.90
36498;DHT22;22513;51.222;6.480;2022-08-18T15:39:08;27.60;84.10
36498;DHT22;22513;51.222;6.480;2022-08-18T15:41:38;27.70;83.20
36498;DHT22;22513;51.222;6.480;2022-08-18T15:44:06;27.90;82.20
36498;DHT22;22513;51.222;6.480;2022-08-18T15:46:34;28.00;81.80
36498;DHT22;22513;51.222;6.480;2022-08-18T15:49:00;28.00;81.50
36498;DHT22;22513;51.222;6.480;2022-08-18T15:51:30;28.10;81.20
36498;DHT22;22513;51.222;6.480;2022-08-18T15:53:55;28.30;80.10
36498;DHT22;22513;51.222;6.480;2022-08-18T15:56:23;28.20;79.80
36498;DHT22;22513;51.222;6.480;2022-08-18T15:58:49;28.10;80.50
36498;DHT22;22513;51.222;6.480;2022-08-18T16:01:17;28.10;80.80
36498;DHT22;22513;51.222;6.480;2022-08-18T16:03:44;28.10;80.70
36498;DHT22;22513;51.222;6.480;2022-08-18T16:06:19;28.10;81.00
36498;DHT22;22513;51.222;6.480;2022-08-18T16:08:49;28.00;81.40
36498;DHT22;22513;51.222;6.480;2022-08-18T16:11:15;28.00;81.50
36498;DHT22;22513;51.222;6.480;2022-08-18T16:13:41;27.90;81.80
36498;DHT22;22513;51.222;6.480;2022-08-18T16:16:12;27.80;82.00
36498;DHT22;22513;51.222;6.480;2022-08-18T16:18:39;27.70;82.20
36498;DHT22;22513;51.222;6.480;2022-08-18T16:21:07;27.60;82.60
36498;DHT22;22513;51.222;6.480;2022-08-18T16:23:41;27.60;82.40
36498;DHT22;22513;51.222;6.480;2022-08-18T16:26:09;27.50;82.50
36498;DHT22;22513;51.222;6.480;2022-08-18T16:28:37;27.40;82.40
36498;DHT22;22513;51.222;6.480;2022-08-18T16:31:03;27.30;82.50
36498;DHT22;22513;51.222;6.480;2022-08-18T16:33:30;27.40;82.70
36498;DHT22;22513;51.222;6.480;2022-08-18T16:36:04;27.30;82.40
36498;DHT22;22513;51.222;6.480;2022-08-18T16:38:32;27.30;82.30
36498;DHT22;22513;51.222;6.480;2022-08-18T16:41:06;27.10;82.10
36498;DHT22;22513;51.222;6.480;2022-08-18T16:43:33;27.00;82.90
36498;DHT22;22513;51.222;6.480;2022-08-18T16:45:59;27.00;82.90
36498;DHT22;22513;51.222;6.480;2022-08-18T16:48:30;26.80;82.70
36498;DHT22;22513;51.222;6.480;2022-08-18T16:50:57;26.70;83.40
36498;DHT22;22513;51.222;6.480;2022-08-18T16:53:22;26.70;83.60
36498;DHT22;22513;51.222;6.480;2022-08-18T16:55:48;26.60;83.60
36498;DHT22;22513;51.222;6.480;2022-08-18T16:58:15;26.60;84.00
36498;DHT22;22513;51.222;6.480;2022-08-18T17:01:00;26.50;84.70
36498;DHT22;22513;51.222;6.480;2022-08-18T17:03:44;26.50;85.30
36498;DHT22;22513;51.222;6.480;2022-08-18T17:06:28;26.40;85.90
36498;DHT22;22513;51.222;6.480;2022-08-18T17:08:54;26.30;86.40
36498;DHT22;22513;51.222;6.480;2022-08-18T17:11:22;26.20;87.00
36498;DHT22;22513;51.222;6.480;2022-08-18T17:13:49;26.20;87.10
36498;DHT22;22513;51.222;6.480;2022-08-18T17:16:17;26.20;87.30
36498;DHT22;22513;51.222;6.480;2022-08-18T17:18:43;26.20;87.60
36498;DHT22;22513;51.222;6.480;2022-08-18T17:21:11;26.20;87.10
36498;DHT22;22513;51.222;6.480;2022-08-18T17:23:38;26.10;87.00
36498;DHT22;22513;51.222;6.480;2022-08-18T17:26:06;26.10;87.80
36498;DHT22;22513;51.222;6.480;2022-08-18T17:28:48;26.00;88.40
36498;DHT22;22513;51.222;6.480;2022-08-18T17:31:15;25.90;88.50
36498;DHT22;22513;51.222;6.480;2022-08-18T17:33:42;26.00;88.50
36498;DHT22;22513;51.222;6.480;2022-08-18T17:36:15;26.00;88.10
36498;DHT22;22513;51.222;6.480;2022-08-18T17:38:58;25.90;87.50
36498;DHT22;22513;51.222;6.480;2022-08-18T17:41:25;25.80;88.10
36498;DHT22;22513;51.222;6.480;2022-08-18T17:43:54;25.70;88.80
36498;DHT22;22513;51.222;6.480;2022-08-18T17:46:27;25.70;89.50
36498;DHT22;22513;51.222;6.480;2022-08-18T17:49:01;25.60;89.60
36498;DHT22;22513;51.222;6.480;2022-08-18T17:51:36;25.50;90.00
36498;DHT22;22513;51.222;6.480;2022-08-18T17:54:30;25.40;90.40
36498;DHT22;22513;51.222;6.480;2022-08-18T18:02:11;25.20;90.20
36498;DHT22;22513;51.222;6.480;2022-08-18T18:04:40;25.10;90.30
36498;DHT22;22513;51.222;6.480;2022-08-18T18:07:19;25.00;90.30
36498;DHT22;22513;51.222;6.480;2022-08-18T18:10:02;25.00;90.40
36498;DHT22;22513;51.222;6.480;2022-08-18T18:12:31;24.90;90.40
36498;DHT22;22513;51.222;6.480;2022-08-18T18:14:58;24.80;90.50
36498;DHT22;22513;51.222;6.480;2022-08-18T18:17:27;24.80;90.40
36498;DHT22;22513;51.222;6.480;2022-08-18T18:22:43;24.60;90.60
36498;DHT22;22513;51.222;6.480;2022-08-18T18:25:11;24.50;90.70
36498;DHT22;22513;51.222;6.480;2022-08-18T18:27:41;24.40;90.90
36498;DHT22;22513;51.222;6.480;2022-08-18T18:32:55;24.20;91.40
36498;DHT22;22513;51.222;6.480;2022-08-18T18:35:23;24.10;91.50
36498;DHT22;22513;51.222;6.480;2022-08-18T18:37:55;24.00;91.70
36498;DHT22;22513;51.222;6.480;2022-08-18T18:40:31;23.90;92.00
36498;DHT22;22513;51.222;6.480;2022-08-18T18:51:37;23.50;93.30
36498;DHT22;22513;51.222;6.480;2022-08-18T18:56:50;23.30;93.60
36498;DHT22;22513;51.222;6.480;2022-08-18T19:07:23;22.90;94.60
36498;DHT22;22513;51.222;6.480;2022-08-18T19:10:09;22.70;94.70